weather.gov     
National Weather Service

Terminal Aerodrome Forecast
NWS Homepage
This page is being discontinued on March 12, 2014.
The same data is available at this site. Please update your bookmarks.
Thank you, and we apologize for the inconvenience.
Please send an email to SR-SRH.Webmaster@noaa.gov with any concerns.


Current Version
Previous Version:    01  02  03  04  05  06  07  08  09  10  11  12  13  14  15  16  17  18  19  20  21  22  23  24  25  26  27  28  29  30  
   31  32  33  34  35  36  37  38  39  40  41  
[Printable]
139
FTUS45 KPIH 210100 AAB
TAFIDA
TAF AMD
KIDA 210108Z 2101/2124 22015KT P6SM VCTS SCT060CB BKN080
      TEMPO 2101/2102 VRB20G35KT 4SM -TSRA BKN060CB OVC080
     FM210200 25015KT P6SM -SHRA VCTS SCT060CB BKN080
     FM210300 07010KT P6SM -SHRA BKN090 OVC160
     FM211200 VRB05KT P6SM VCSH SCT015 BKN080 OVC130=


U.S. Dept. of Commerce
NOAA National Weather Service
1325 East West Highway
Silver Spring, MD 20910
E-mail: w-nws.webmaster@noaa.gov
Page last modified: May 16, 2007
NATIONAL WEATHER SERVICE: for Safety, for Work, for Fun - FOR LIFE